Time;durP1;ratioP1;P1;durP2;ratioP2;P2;SDS_P1;SDS_P2;PMS_P1;PMS_P2;Temp;Humidity;BMP_temperature;BMP_pressure;BME280_temperature;BME280_humidity;BME280_pressure;Samples;Min_cycle;Max_cycle;Signal;HPM_P1;HPM_P2
2022/03/26 00:03:22;;;;;;;76.10;46.70;;;;;;;2.18;56.03;100414.64;432171;1270;326983;-63
2022/03/26 00:13:28;;;;;;;74.60;47.20;;;;;;;2.12;56.47;100414.91;432303;1270;141530;-58
2022/03/26 00:23:34;;;;;;;67.50;44.80;;;;;;;2.07;57.25;100400.98;431729;1270;143885;-62
2022/03/26 00:33:42;;;;;;;66.60;42.90;;;;;;;2.07;58.01;100391.31;430872;1270;141118;-60
2022/03/26 00:43:48;;;;;;;66.40;43.50;;;;;;;2.06;58.39;100384.77;431938;1270;141145;-60
2022/03/26 00:53:53;;;;;;;72.10;44.70;;;;;;;2.16;58.95;100376.49;431558;1270;140662;-61
2022/03/26 01:04:00;;;;;;;70.10;43.40;;;;;;;2.28;59.11;100364.73;431468;1269;142971;-61
2022/03/26 01:14:06;;;;;;;76.30;45.30;;;;;;;2.24;59.45;100357.18;431931;1270;141537;-63
2022/03/26 01:24:12;;;;;;;69.50;43.00;;;;;;;2.10;59.74;100350.15;431292;1270;144008;-61
2022/03/26 01:34:18;;;;;;;69.60;45.90;;;;;;;1.92;59.78;100342.67;431399;1270;143012;-61
2022/03/26 01:44:24;;;;;;;69.00;43.10;;;;;;;1.71;59.37;100344.59;431822;1270;141963;-61
2022/03/26 01:54:31;;;;;;;66.60;43.00;;;;;;;1.45;59.82;100341.14;430528;1269;142394;-59
2022/03/26 02:04:37;;;;;;;69.70;43.80;;;;;;;1.23;60.37;100339.73;431424;1270;141405;-60
2022/03/26 02:14:42;;;;;;;64.00;42.10;;;;;;;1.05;60.57;100337.89;431004;1270;141051;-60
2022/03/26 02:24:48;;;;;;;70.40;46.30;;;;;;;0.93;61.64;100335.45;430045;1269;142846;-62
2022/03/26 02:34:58;;;;;;;62.30;42.10;;;;;;;0.93;62.31;100329.92;430936;1270;142470;-59
2022/03/26 02:45:10;;;;;;;68.10;43.30;;;;;;;0.92;62.58;100327.19;430961;1270;142913;-60
2022/03/26 02:55:15;;;;;;;62.20;42.60;;;;;;;0.83;62.68;100318.67;430790;1269;143842;-60
2022/03/26 03:05:21;;;;;;;67.70;44.60;;;;;;;0.72;62.92;100299.85;430798;1269;143001;-59
2022/03/26 03:15:27;;;;;;;68.60;43.70;;;;;;;0.54;63.65;100282.14;430547;1271;143603;-65
2022/03/26 03:25:33;;;;;;;66.80;46.70;;;;;;;0.38;64.05;100269.73;431679;1268;143039;-61
2022/03/26 03:35:39;;;;;;;60.30;40.90;;;;;;;0.27;64.44;100259.70;431896;1270;142064;-61
2022/03/26 03:45:45;;;;;;;59.50;38.60;;;;;;;0.21;64.66;100252.70;430464;1270;144310;-61
2022/03/26 03:55:51;;;;;;;62.80;41.40;;;;;;;0.12;65.10;100250.37;430885;1269;143230;-61
2022/03/26 04:05:58;;;;;;;61.00;39.10;;;;;;;0.06;65.83;100234.42;430513;1270;142004;-60
2022/03/26 04:16:05;;;;;;;58.50;39.50;;;;;;;0.02;66.36;100233.44;430072;1269;145590;-60
2022/03/26 04:26:11;;;;;;;49.00;33.60;;;;;;;0.04;67.07;100234.96;431150;1270;143064;-60
2022/03/26 04:36:17;;;;;;;46.60;33.10;;;;;;;0.11;67.59;100231.11;432508;1269;142211;-59
2022/03/26 04:46:23;;;;;;;55.20;32.40;;;;;;;0.25;68.10;100229.23;430816;1270;142770;-62
2022/03/26 04:56:29;;;;;;;51.80;31.20;;;;;;;0.65;68.18;100223.75;430940;1270;141937;-59
2022/03/26 05:06:35;;;;;;;50.00;29.30;;;;;;;1.21;67.97;100216.75;430996;1270;142263;-60
2022/03/26 05:16:41;;;;;;;45.40;28.40;;;;;;;1.80;67.49;100207.86;431250;1270;142979;-60
2022/03/26 05:26:47;;;;;;;42.90;27.90;;;;;;;2.38;67.02;100202.97;431363;1270;142339;-60
2022/03/26 05:36:53;;;;;;;59.00;28.20;;;;;;;3.58;66.51;100201.95;431471;1270;141597;-61
2022/03/26 05:46:59;;;;;;;35.10;25.40;;;;;;;8.61;62.55;100188.81;430816;1269;141899;-60
2022/03/26 05:57:06;;;;;;;31.80;24.80;;;;;;;13.48;54.44;100175.98;431617;1270;141100;-62
2022/03/26 06:07:12;;;;;;;30.00;22.30;;;;;;;17.48;47.80;100160.52;430717;1270;142299;-60
2022/03/26 06:17:18;;;;;;;31.60;22.50;;;;;;;21.06;42.17;100135.39;431268;1270;143619;-62
2022/03/26 06:27:24;;;;;;;24.80;21.50;;;;;;;24.51;36.51;100144.30;431183;1270;145700;-60
2022/03/26 06:37:29;;;;;;;22.20;19.10;;;;;;;26.73;32.45;100124.23;431041;1270;141845;-60
2022/03/26 06:47:35;;;;;;;27.10;20.00;;;;;;;28.43;28.77;100121.78;432398;1270;145435;-61
2022/03/26 06:57:42;;;;;;;22.10;19.60;;;;;;;30.96;26.12;100106.92;431187;1270;195842;-60
2022/03/26 07:07:48;;;;;;;20.90;18.70;;;;;;;32.43;24.13;100105.29;431015;1270;141451;-60
2022/03/26 07:17:53;;;;;;;20.10;17.00;;;;;;;34.04;22.12;100092.95;430546;1270;147350;-61
2022/03/26 07:28:00;;;;;;;24.60;15.90;;;;;;;35.11;20.55;100088.38;431597;1270;141743;-62
2022/03/26 07:38:06;;;;;;;19.80;14.10;;;;;;;34.29;19.38;100087.55;431452;1270;142014;-61
2022/03/26 07:48:12;;;;;;;15.00;13.40;;;;;;;35.07;19.00;100076.17;430804;1270;147954;-61
2022/03/26 07:58:18;;;;;;;14.00;11.50;;;;;;;34.71;18.27;100081.32;430125;1270;141793;-60
2022/03/26 08:08:23;;;;;;;17.50;11.30;;;;;;;33.75;18.11;100073.48;430987;1270;146119;-63
2022/03/26 08:18:30;;;;;;;34.30;11.50;;;;;;;29.62;19.62;100070.42;429910;1270;145257;-63
2022/03/26 08:28:41;;;;;;;69.20;14.50;;;;;;;27.37;21.00;100062.73;432486;1270;145059;-61
2022/03/26 08:38:48;;;;;;;13.90;11.90;;;;;;;23.98;23.48;100054.92;436039;1267;142717;-60
2022/03/26 08:48:56;;;;;;;16.40;11.00;;;;;;;23.79;24.69;100053.34;446741;1270;142552;-61
2022/03/26 08:59:02;;;;;;;30.50;12.50;;;;;;;23.52;24.59;100054.38;433937;1271;143398;-58
2022/03/26 09:09:08;;;;;;;20.60;10.40;;;;;;;19.94;27.59;100053.91;432081;1270;145541;-58
2022/03/26 09:19:13;;;;;;;23.10;10.70;;;;;;;17.61;31.04;100044.64;430527;1270;141936;-59
2022/03/26 09:29:19;;;;;;;20.80;9.10;;;;;;;16.89;32.58;100052.17;430284;1271;142550;-59
2022/03/26 09:39:25;;;;;;;35.00;9.70;;;;;;;16.70;33.33;100042.93;430139;1270;143371;-58
2022/03/26 09:49:31;;;;;;;29.60;10.40;;;;;;;16.77;33.69;100037.92;430411;1271;142761;-59
2022/03/26 09:59:38;;;;;;;21.40;9.80;;;;;;;17.26;33.54;100029.32;431223;1270;181417;-57
2022/03/26 10:09:45;;;;;;;23.80;8.70;;;;;;;16.38;34.54;100032.27;431033;1270;141371;-58
2022/03/26 10:19:53;;;;;;;15.80;10.30;;;;;;;16.81;34.56;100026.08;431472;1270;141168;-58
2022/03/26 10:30:00;;;;;;;38.90;10.20;;;;;;;17.05;34.28;100013.92;432145;1270;142804;-61
2022/03/26 10:40:24;;;;;;;19.30;9.50;;;;;;;17.24;34.31;99998.11;430016;1271;142316;-58
2022/03/26 10:50:36;;;;;;;20.40;8.30;;;;;;;17.61;33.94;99985.73;430766;1271;142535;-59
2022/03/26 11:00:43;;;;;;;16.90;6.90;;;;;;;17.68;33.60;99984.47;431213;1270;142411;-58
2022/03/26 11:10:50;;;;;;;42.50;13.80;;;;;;;17.60;33.82;99983.39;431677;1270;141458;-56
2022/03/26 11:21:18;;;;;;;12.40;7.30;;;;;;;17.75;33.89;99974.15;431863;1270;142027;-58
2022/03/26 11:31:32;;;;;;;24.90;7.10;;;;;;;16.90;34.49;99971.77;430697;1270;143518;-58
2022/03/26 11:41:39;;;;;;;23.80;6.50;;;;;;;15.88;35.85;99964.18;432263;1270;141771;-55
2022/03/26 11:51:57;;;;;;;18.10;8.30;;;;;;;15.16;37.08;99973.82;431239;1271;141971;-57
2022/03/26 12:02:18;;;;;;;22.90;7.40;;;;;;;14.83;37.82;99978.59;431719;1270;179532;-57
2022/03/26 12:12:23;;;;;;;13.60;6.90;;;;;;;14.68;38.53;99985.73;430834;1270;142078;-57
2022/03/26 12:22:33;;;;;;;13.60;7.50;;;;;;;14.16;42.66;99992.27;431500;1271;142936;-57
2022/03/26 12:32:42;;;;;;;15.40;6.10;;;;;;;13.46;46.11;100010.59;431335;1270;142203;-59
2022/03/26 12:42:54;;;;;;;18.00;10.40;;;;;;;13.18;48.59;100025.31;431746;1270;142290;-57
2022/03/26 12:53:10;;;;;;;19.50;13.10;;;;;;;12.54;52.02;100051.46;433306;1269;141355;-59
2022/03/26 13:03:16;;;;;;;19.30;11.50;;;;;;;11.87;55.35;100072.16;432669;1270;142454;-58
2022/03/26 13:13:22;;;;;;;17.30;13.20;;;;;;;10.96;58.12;100081.36;431577;1271;142349;-58
2022/03/26 13:23:30;;;;;;;20.10;14.00;;;;;;;10.53;59.64;100093.56;435859;1270;142698;-58
2022/03/26 13:33:36;;;;;;;19.60;15.30;;;;;;;10.29;60.52;100103.79;429656;1271;143339;-59
2022/03/26 13:43:42;;;;;;;21.80;15.70;;;;;;;9.87;60.57;100113.17;430661;1271;144624;-59
2022/03/26 13:53:49;;;;;;;22.20;16.10;;;;;;;9.72;60.41;100114.84;430627;1271;141966;-60
2022/03/26 14:03:58;;;;;;;23.50;16.30;;;;;;;9.72;60.18;100111.34;431751;1271;142504;-58
2022/03/26 14:14:03;;;;;;;24.80;15.50;;;;;;;9.64;60.32;100109.30;430865;1271;143906;-59
2022/03/26 14:24:09;;;;;;;25.60;17.00;;;;;;;9.54;60.53;100119.09;431467;1271;142350;-59
2022/03/26 14:34:16;;;;;;;24.90;17.30;;;;;;;9.49;60.32;100129.82;431053;1271;142624;-59
2022/03/26 14:44:29;;;;;;;17.70;14.20;;;;;;;9.35;60.39;100142.21;431173;1270;142433;-58
2022/03/26 14:54:34;;;;;;;19.30;13.30;;;;;;;9.29;60.02;100147.73;432279;1269;148945;-56
2022/03/26 15:04:40;;;;;;;17.50;13.10;;;;;;;9.38;59.83;100156.91;431407;1270;142480;-60
2022/03/26 15:14:52;;;;;;;16.50;11.60;;;;;;;9.31;59.79;100168.80;431078;1270;142562;-59
2022/03/26 15:25:00;;;;;;;13.30;9.10;;;;;;;9.14;59.52;100184.46;431280;1270;142154;-59
2022/03/26 15:35:07;;;;;;;10.50;7.70;;;;;;;9.10;59.54;100195.83;431310;1269;142716;-60
2022/03/26 15:45:13;;;;;;;11.90;8.70;;;;;;;9.02;59.70;100190.77;431023;1270;142319;-59
2022/03/26 15:55:19;;;;;;;10.90;8.60;;;;;;;9.02;59.46;100203.21;432407;1270;142579;-59
2022/03/26 16:05:25;;;;;;;10.80;8.60;;;;;;;8.88;59.68;100211.02;432054;1270;147734;-58
2022/03/26 16:15:31;;;;;;;12.90;9.20;;;;;;;8.85;59.71;100235.42;431711;1270;142248;-59
2022/03/26 16:25:37;;;;;;;9.20;8.00;;;;;;;8.76;60.12;100237.56;431059;1270;142066;-59
2022/03/26 16:35:43;;;;;;;8.90;7.60;;;;;;;8.62;60.52;100243.10;433438;1270;141225;-59
2022/03/26 16:45:48;;;;;;;10.20;9.10;;;;;;;8.48;60.95;100249.45;430537;1270;140619;-62
2022/03/26 16:55:54;;;;;;;10.80;8.50;;;;;;;8.20;61.58;100258.35;431047;1270;142154;-58
2022/03/26 17:06:00;;;;;;;10.20;8.10;;;;;;;7.81;62.13;100266.63;432544;1270;141767;-58
2022/03/26 17:16:07;;;;;;;13.40;9.80;;;;;;;7.65;62.94;100268.99;431247;1271;142838;-59
2022/03/26 17:26:15;;;;;;;12.50;10.00;;;;;;;7.48;63.15;100278.39;434608;1270;143352;-59
2022/03/26 17:36:21;;;;;;;13.80;9.40;;;;;;;7.38;63.78;100290.11;432071;1270;142355;-60
2022/03/26 17:46:27;;;;;;;13.80;9.60;;;;;;;7.18;64.48;100306.74;431508;1270;142399;-59
2022/03/26 17:56:33;;;;;;;13.30;9.40;;;;;;;6.94;64.84;100329.02;431405;1270;142228;-64
2022/03/26 18:06:41;;;;;;;11.90;8.90;;;;;;;6.94;65.25;100345.90;430644;1270;142238;-61
2022/03/26 18:16:49;;;;;;;13.60;10.00;;;;;;;7.14;65.29;100357.70;431323;1270;147848;-62
2022/03/26 18:26:56;;;;;;;13.50;9.20;;;;;;;7.23;65.08;100375.65;431818;1269;141651;-63
2022/03/26 18:37:03;;;;;;;12.60;8.80;;;;;;;7.30;64.52;100387.95;432731;1270;143173;-62
2022/03/26 18:47:09;;;;;;;13.60;8.50;;;;;;;7.31;64.24;100391.90;431881;1270;142226;-62
2022/03/26 18:57:18;;;;;;;16.00;9.40;;;;;;;7.11;64.02;100397.33;432910;1269;142796;-62
2022/03/26 19:07:24;;;;;;;11.60;9.70;;;;;;;6.92;64.26;100420.48;431956;1270;141827;-62
2022/03/26 19:17:32;;;;;;;11.60;8.80;;;;;;;6.88;64.33;100444.46;431954;1270;142255;-60
2022/03/26 19:27:38;;;;;;;19.20;9.70;;;;;;;6.76;64.40;100465.08;432714;1270;142721;-62
2022/03/26 19:37:49;;;;;;;11.40;7.50;;;;;;;6.74;62.64;100499.06;431915;1270;141582;-62
2022/03/26 19:47:55;;;;;;;7.30;3.30;;;;;;;6.47;58.78;100537.16;431777;1270;146103;-63
2022/03/26 19:58:01;;;;;;;5.20;2.40;;;;;;;6.06;54.73;100549.89;431969;1270;141935;-65
2022/03/26 20:08:08;;;;;;;4.60;2.40;;;;;;;5.81;53.06;100554.59;431540;1270;142041;-62
2022/03/26 20:28:37;;;;;;;4.40;1.50;;;;;;;5.48;48.17;100599.27;431437;1270;144465;-61
2022/03/26 20:38:44;;;;;;;9.40;2.60;;;;;;;5.16;46.99;100614.13;431576;1270;140757;-60
2022/03/26 20:48:51;;;;;;;5.90;2.20;;;;;;;4.67;46.27;100644.96;430641;1269;142257;-60
2022/03/26 20:58:56;;;;;;;5.20;2.10;;;;;;;4.16;46.09;100678.27;431753;1270;141523;-60
2022/03/26 21:09:05;;;;;;;7.10;2.60;;;;;;;3.69;46.25;100704.63;431293;1270;141496;-60
2022/03/26 21:19:11;;;;;;;7.70;4.10;;;;;;;3.29;46.40;100717.91;431670;1269;142131;-62
2022/03/26 21:29:17;;;;;;;6.50;3.70;;;;;;;2.93;46.87;100727.09;432547;1269;140690;-60
2022/03/26 21:39:23;;;;;;;5.00;2.80;;;;;;;2.70;47.58;100739.34;430898;1270;145148;-59
2022/03/26 21:49:29;;;;;;;5.40;2.60;;;;;;;2.42;48.28;100745.55;431152;1270;141363;-61
2022/03/26 21:59:35;;;;;;;21.20;5.30;;;;;;;2.18;48.81;100767.95;431915;1270;141497;-59
2022/03/26 22:09:41;;;;;;;6.60;3.10;;;;;;;2.01;49.26;100779.85;431531;1270;141920;-60
2022/03/26 22:19:47;;;;;;;4.80;2.60;;;;;;;1.86;49.69;100784.13;432036;1270;141081;-69
2022/03/26 22:29:53;;;;;;;4.60;2.50;;;;;;;1.64;50.28;100789.83;432242;1270;141159;-67
2022/03/26 22:50:23;;;;;;;5.80;2.00;;;;;;;1.28;51.27;100811.47;432157;1269;140618;-67
2022/03/26 23:01:12;;;;;;;4.40;2.00;;;;;;;1.08;51.61;100820.20;431638;1270;140910;-67
2022/03/26 23:11:18;;;;;;;8.80;4.10;;;;;;;0.94;52.29;100837.17;432117;1269;143265;-68
2022/03/26 23:21:24;;;;;;;3.60;2.10;;;;;;;0.79;52.55;100845.33;430734;1270;141618;-69
2022/03/26 23:31:30;;;;;;;8.30;3.30;;;;;;;0.62;52.93;100839.86;433240;1269;141423;-69
2022/03/26 23:41:36;;;;;;;8.80;3.50;;;;;;;0.49;53.13;100843.85;431384;1270;141855;-68
2022/03/26 23:51:42;;;;;;;7.70;2.90;;;;;;;0.35;53.73;100858.70;431123;1270;141946;-68
